VYYY/RGN METAR and TAF weather

Enter ICAO airport designator
Station Type Date Time Source
VYYY METAR 2022/06/28 09:00 UTC NOAA

VYYY 280900Z 26007KT 7000 BKN016 FEW020CB BKN100 30/25 Q1004 NOSIG


Station Type Date Time Source
VYYY Decoded METAR 2022/06/28 09:00 UTC NOAA

Yangon, Myanmar (VYYY) 16-46N 096-10E 15M
Jun 28, 2022 - 05:00 AM EDT / 2022.06.28 0900 UTC
Wind: from the W (260 degrees) at 8 MPH (7 KT):0
Visibility: 4 mile(s):0
Sky conditions: mostly cloudy
Weather: Cumulonimbus clouds observed
Temperature: 86 F (30 C)
Heat index: 96.8 F (36.0 C):1
Dew Point: 77 F (25 C)
Relative Humidity: 74%
Pressure (altimeter): 29.65 in. Hg (1004 hPa)
ob: VYYY 280900Z 26007KT 7000 BKN016 FEW020CB BKN100 30/25 Q1004 NOSIG
cycle: 9

Station Type Date Time Source
VYYY TAF 2022/06/28 06:39 UTC NOAA

TAF TAF VYYY 280500Z 2806/2906 21007KT 7000 BKN015 FEW020CB BKN100
TEMPO 2806/2812 21005G15KT 4000 TSRA BKN012 FEW016CB BKN090

Example: see airport list